sensor_id;sensor_type;location;lat;lon;timestamp;P1;durP1;ratioP1;P2;durP2;ratioP2
7001;SDS011;3541;53.230;10.518;2022-12-11T00:00:36;11.63;;;7.47;;
7001;SDS011;3541;53.230;10.518;2022-12-11T00:03:03;11.60;;;7.17;;
7001;SDS011;3541;53.230;10.518;2022-12-11T00:05:31;11.70;;;7.63;;
7001;SDS011;3541;53.230;10.518;2022-12-11T00:07:58;14.07;;;8.67;;
7001;SDS011;3541;53.230;10.518;2022-12-11T00:10:24;13.50;;;8.30;;
7001;SDS011;3541;53.230;10.518;2022-12-11T00:12:51;12.40;;;8.13;;
7001;SDS011;3541;53.230;10.518;2022-12-11T00:15:18;14.77;;;7.73;;
7001;SDS011;3541;53.230;10.518;2022-12-11T00:17:45;15.47;;;8.53;;
7001;SDS011;3541;53.230;10.518;2022-12-11T00:20:11;14.77;;;8.47;;
7001;SDS011;3541;53.230;10.518;2022-12-11T00:22:39;11.47;;;7.13;;
7001;SDS011;3541;53.230;10.518;2022-12-11T00:25:06;11.87;;;7.50;;
7001;SDS011;3541;53.230;10.518;2022-12-11T00:27:34;9.77;;;7.23;;
7001;SDS011;3541;53.230;10.518;2022-12-11T00:30:00;11.00;;;6.90;;
7001;SDS011;3541;53.230;10.518;2022-12-11T00:32:27;11.53;;;6.43;;
7001;SDS011;3541;53.230;10.518;2022-12-11T00:34:53;9.73;;;6.53;;
7001;SDS011;3541;53.230;10.518;2022-12-11T00:37:20;10.50;;;6.97;;
7001;SDS011;3541;53.230;10.518;2022-12-11T00:39:48;9.37;;;6.70;;
7001;SDS011;3541;53.230;10.518;2022-12-11T00:42:14;10.40;;;6.53;;
7001;SDS011;3541;53.230;10.518;2022-12-11T00:44:41;10.73;;;6.90;;
7001;SDS011;3541;53.230;10.518;2022-12-11T00:47:08;12.63;;;6.97;;
7001;SDS011;3541;53.230;10.518;2022-12-11T00:49:34;10.97;;;7.30;;
7001;SDS011;3541;53.230;10.518;2022-12-11T00:52:01;11.13;;;7.03;;
7001;SDS011;3541;53.230;10.518;2022-12-11T00:54:27;10.87;;;6.67;;
7001;SDS011;3541;53.230;10.518;2022-12-11T00:56:55;10.33;;;6.80;;
7001;SDS011;3541;53.230;10.518;2022-12-11T00:59:22;10.27;;;6.77;;
7001;SDS011;3541;53.230;10.518;2022-12-11T01:01:48;10.00;;;7.23;;
7001;SDS011;3541;53.230;10.518;2022-12-11T01:04:15;10.93;;;6.93;;
7001;SDS011;3541;53.230;10.518;2022-12-11T01:06:42;10.57;;;7.27;;
7001;SDS011;3541;53.230;10.518;2022-12-11T01:09:08;10.97;;;6.73;;
7001;SDS011;3541;53.230;10.518;2022-12-11T01:11:52;10.10;;;6.83;;
7001;SDS011;3541;53.230;10.518;2022-12-11T01:14:20;10.73;;;7.23;;
7001;SDS011;3541;53.230;10.518;2022-12-11T01:16:47;10.80;;;7.23;;
7001;SDS011;3541;53.230;10.518;2022-12-11T01:19:14;12.33;;;7.67;;
7001;SDS011;3541;53.230;10.518;2022-12-11T01:21:40;9.80;;;6.77;;
7001;SDS011;3541;53.230;10.518;2022-12-11T01:24:07;10.93;;;6.73;;
7001;SDS011;3541;53.230;10.518;2022-12-11T01:26:33;11.50;;;6.57;;
7001;SDS011;3541;53.230;10.518;2022-12-11T01:29:00;10.83;;;6.63;;
7001;SDS011;3541;53.230;10.518;2022-12-11T01:31:28;8.63;;;6.17;;
7001;SDS011;3541;53.230;10.518;2022-12-11T01:33:55;15.70;;;8.40;;
7001;SDS011;3541;53.230;10.518;2022-12-11T01:36:22;16.50;;;10.17;;
7001;SDS011;3541;53.230;10.518;2022-12-11T01:38:49;12.10;;;7.27;;
7001;SDS011;3541;53.230;10.518;2022-12-11T01:41:17;9.97;;;7.27;;
7001;SDS011;3541;53.230;10.518;2022-12-11T01:44:00;13.43;;;7.70;;
7001;SDS011;3541;53.230;10.518;2022-12-11T01:46:30;12.67;;;7.83;;
7001;SDS011;3541;53.230;10.518;2022-12-11T01:49:00;14.53;;;8.47;;
7001;SDS011;3541;53.230;10.518;2022-12-11T01:51:30;12.30;;;7.80;;
7001;SDS011;3541;53.230;10.518;2022-12-11T01:53:59;14.90;;;7.97;;
7001;SDS011;3541;53.230;10.518;2022-12-11T01:56:30;12.60;;;7.73;;
7001;SDS011;3541;53.230;10.518;2022-12-11T01:59:00;10.43;;;7.10;;
7001;SDS011;3541;53.230;10.518;2022-12-11T02:01:33;12.93;;;7.97;;
7001;SDS011;3541;53.230;10.518;2022-12-11T02:04:06;12.67;;;7.90;;
7001;SDS011;3541;53.230;10.518;2022-12-11T02:06:35;15.30;;;8.57;;
7001;SDS011;3541;53.230;10.518;2022-12-11T02:09:04;16.20;;;8.63;;
7001;SDS011;3541;53.230;10.518;2022-12-11T02:11:35;13.33;;;8.33;;
7001;SDS011;3541;53.230;10.518;2022-12-11T02:14:15;14.90;;;8.17;;
7001;SDS011;3541;53.230;10.518;2022-12-11T02:16:52;12.00;;;7.43;;
7001;SDS011;3541;53.230;10.518;2022-12-11T02:19:30;13.77;;;8.40;;
7001;SDS011;3541;53.230;10.518;2022-12-11T02:22:10;15.13;;;8.57;;
7001;SDS011;3541;53.230;10.518;2022-12-11T02:24:46;12.40;;;8.20;;
7001;SDS011;3541;53.230;10.518;2022-12-11T02:27:22;12.97;;;7.50;;
7001;SDS011;3541;53.230;10.518;2022-12-11T02:29:57;10.57;;;7.10;;
7001;SDS011;3541;53.230;10.518;2022-12-11T02:32:29;10.77;;;6.40;;
7001;SDS011;3541;53.230;10.518;2022-12-11T02:35:02;11.53;;;7.03;;
7001;SDS011;3541;53.230;10.518;2022-12-11T02:37:33;11.97;;;7.23;;
7001;SDS011;3541;53.230;10.518;2022-12-11T02:40:03;10.63;;;7.40;;
7001;SDS011;3541;53.230;10.518;2022-12-11T02:42:35;11.27;;;7.43;;
7001;SDS011;3541;53.230;10.518;2022-12-11T02:45:06;10.17;;;7.17;;
7001;SDS011;3541;53.230;10.518;2022-12-11T02:47:35;12.03;;;7.50;;
7001;SDS011;3541;53.230;10.518;2022-12-11T02:50:03;14.00;;;8.50;;
7001;SDS011;3541;53.230;10.518;2022-12-11T02:52:36;11.37;;;7.40;;
7001;SDS011;3541;53.230;10.518;2022-12-11T02:55:04;10.90;;;7.30;;
7001;SDS011;3541;53.230;10.518;2022-12-11T02:57:35;10.87;;;6.93;;
7001;SDS011;3541;53.230;10.518;2022-12-11T03:00:07;10.20;;;6.73;;
7001;SDS011;3541;53.230;10.518;2022-12-11T03:02:35;11.23;;;6.63;;
7001;SDS011;3541;53.230;10.518;2022-12-11T03:05:02;12.17;;;7.73;;
7001;SDS011;3541;53.230;10.518;2022-12-11T03:07:31;9.73;;;6.83;;
7001;SDS011;3541;53.230;10.518;2022-12-11T03:09:59;11.83;;;7.53;;
7001;SDS011;3541;53.230;10.518;2022-12-11T03:12:27;8.50;;;6.03;;
7001;SDS011;3541;53.230;10.518;2022-12-11T03:14:56;10.03;;;7.47;;
7001;SDS011;3541;53.230;10.518;2022-12-11T03:17:27;12.23;;;6.87;;
7001;SDS011;3541;53.230;10.518;2022-12-11T03:20:01;11.10;;;7.13;;
7001;SDS011;3541;53.230;10.518;2022-12-11T03:22:33;10.70;;;7.33;;
7001;SDS011;3541;53.230;10.518;2022-12-11T03:25:05;12.00;;;7.50;;
7001;SDS011;3541;53.230;10.518;2022-12-11T03:27:35;12.33;;;7.63;;
7001;SDS011;3541;53.230;10.518;2022-12-11T03:30:08;14.37;;;8.53;;
7001;SDS011;3541;53.230;10.518;2022-12-11T03:32:39;13.27;;;8.17;;
7001;SDS011;3541;53.230;10.518;2022-12-11T03:35:12;11.50;;;7.20;;
7001;SDS011;3541;53.230;10.518;2022-12-11T03:37:43;12.67;;;8.13;;
7001;SDS011;3541;53.230;10.518;2022-12-11T03:40:12;11.97;;;7.17;;
7001;SDS011;3541;53.230;10.518;2022-12-11T03:42:41;12.67;;;7.73;;
7001;SDS011;3541;53.230;10.518;2022-12-11T03:45:11;12.43;;;7.47;;
7001;SDS011;3541;53.230;10.518;2022-12-11T03:47:40;11.70;;;7.37;;
7001;SDS011;3541;53.230;10.518;2022-12-11T03:50:10;11.00;;;6.97;;
7001;SDS011;3541;53.230;10.518;2022-12-11T03:52:39;13.57;;;7.60;;
7001;SDS011;3541;53.230;10.518;2022-12-11T03:55:07;11.10;;;7.27;;
7001;SDS011;3541;53.230;10.518;2022-12-11T03:57:36;10.30;;;6.93;;
7001;SDS011;3541;53.230;10.518;2022-12-11T04:00:03;11.23;;;7.13;;
7001;SDS011;3541;53.230;10.518;2022-12-11T04:02:31;13.00;;;8.00;;
7001;SDS011;3541;53.230;10.518;2022-12-11T04:04:59;11.97;;;7.27;;
7001;SDS011;3541;53.230;10.518;2022-12-11T04:07:26;11.83;;;7.17;;
7001;SDS011;3541;53.230;10.518;2022-12-11T04:09:55;13.73;;;7.67;;
7001;SDS011;3541;53.230;10.518;2022-12-11T04:12:22;11.73;;;7.57;;
7001;SDS011;3541;53.230;10.518;2022-12-11T04:14:48;11.70;;;7.43;;
7001;SDS011;3541;53.230;10.518;2022-12-11T04:17:26;12.67;;;7.73;;
7001;SDS011;3541;53.230;10.518;2022-12-11T04:20:12;13.20;;;7.93;;
7001;SDS011;3541;53.230;10.518;2022-12-11T04:22:56;12.73;;;7.83;;
7001;SDS011;3541;53.230;10.518;2022-12-11T04:25:40;14.60;;;8.47;;
7001;SDS011;3541;53.230;10.518;2022-12-11T04:28:07;16.20;;;8.00;;
7001;SDS011;3541;53.230;10.518;2022-12-11T04:30:34;12.67;;;8.47;;
7001;SDS011;3541;53.230;10.518;2022-12-11T04:33:00;12.40;;;7.70;;
7001;SDS011;3541;53.230;10.518;2022-12-11T04:35:28;13.10;;;8.17;;
7001;SDS011;3541;53.230;10.518;2022-12-11T04:37:55;12.93;;;8.27;;
7001;SDS011;3541;53.230;10.518;2022-12-11T04:40:22;14.53;;;8.90;;
7001;SDS011;3541;53.230;10.518;2022-12-11T04:42:49;18.87;;;10.07;;
7001;SDS011;3541;53.230;10.518;2022-12-11T04:45:16;21.83;;;10.83;;
7001;SDS011;3541;53.230;10.518;2022-12-11T04:47:43;12.33;;;7.70;;
7001;SDS011;3541;53.230;10.518;2022-12-11T04:50:10;13.33;;;7.93;;
7001;SDS011;3541;53.230;10.518;2022-12-11T04:52:39;16.83;;;8.83;;
7001;SDS011;3541;53.230;10.518;2022-12-11T04:55:07;12.03;;;7.60;;
7001;SDS011;3541;53.230;10.518;2022-12-11T04:57:35;12.93;;;7.87;;
7001;SDS011;3541;53.230;10.518;2022-12-11T05:00:02;11.80;;;8.97;;
7001;SDS011;3541;53.230;10.518;2022-12-11T05:02:29;13.00;;;8.37;;
7001;SDS011;3541;53.230;10.518;2022-12-11T05:04:58;13.13;;;8.03;;
7001;SDS011;3541;53.230;10.518;2022-12-11T05:07:25;14.60;;;8.23;;
7001;SDS011;3541;53.230;10.518;2022-12-11T05:09:53;16.30;;;9.23;;
7001;SDS011;3541;53.230;10.518;2022-12-11T05:12:19;13.63;;;8.23;;
7001;SDS011;3541;53.230;10.518;2022-12-11T05:14:46;12.90;;;7.80;;
7001;SDS011;3541;53.230;10.518;2022-12-11T05:17:16;12.67;;;8.60;;
7001;SDS011;3541;53.230;10.518;2022-12-11T05:19:42;13.43;;;8.53;;
7001;SDS011;3541;53.230;10.518;2022-12-11T05:22:09;16.23;;;8.80;;
7001;SDS011;3541;53.230;10.518;2022-12-11T05:24:35;14.37;;;8.67;;
7001;SDS011;3541;53.230;10.518;2022-12-11T05:27:03;12.83;;;8.37;;
7001;SDS011;3541;53.230;10.518;2022-12-11T05:29:30;15.67;;;8.53;;
7001;SDS011;3541;53.230;10.518;2022-12-11T05:31:56;11.67;;;8.00;;
7001;SDS011;3541;53.230;10.518;2022-12-11T05:34:23;12.67;;;7.87;;
7001;SDS011;3541;53.230;10.518;2022-12-11T05:36:50;13.83;;;8.37;;
7001;SDS011;3541;53.230;10.518;2022-12-11T05:39:16;12.57;;;7.73;;
7001;SDS011;3541;53.230;10.518;2022-12-11T05:41:44;13.40;;;8.03;;
7001;SDS011;3541;53.230;10.518;2022-12-11T05:44:12;14.13;;;8.20;;
7001;SDS011;3541;53.230;10.518;2022-12-11T05:46:39;10.33;;;7.27;;
7001;SDS011;3541;53.230;10.518;2022-12-11T05:49:06;13.17;;;8.40;;
7001;SDS011;3541;53.230;10.518;2022-12-11T05:51:33;11.40;;;7.70;;
7001;SDS011;3541;53.230;10.518;2022-12-11T05:54:00;11.90;;;7.40;;
7001;SDS011;3541;53.230;10.518;2022-12-11T05:56:29;13.17;;;8.00;;
7001;SDS011;3541;53.230;10.518;2022-12-11T05:58:58;11.50;;;8.23;;
7001;SDS011;3541;53.230;10.518;2022-12-11T06:01:27;12.13;;;7.50;;
7001;SDS011;3541;53.230;10.518;2022-12-11T06:03:55;16.50;;;8.70;;
7001;SDS011;3541;53.230;10.518;2022-12-11T06:06:23;12.90;;;7.97;;
7001;SDS011;3541;53.230;10.518;2022-12-11T06:08:51;13.33;;;8.13;;
7001;SDS011;3541;53.230;10.518;2022-12-11T06:11:18;14.17;;;8.47;;
7001;SDS011;3541;53.230;10.518;2022-12-11T06:13:46;14.33;;;8.90;;
7001;SDS011;3541;53.230;10.518;2022-12-11T06:16:13;16.57;;;8.80;;
7001;SDS011;3541;53.230;10.518;2022-12-11T06:18:41;13.00;;;7.83;;
7001;SDS011;3541;53.230;10.518;2022-12-11T06:21:10;12.27;;;7.97;;
7001;SDS011;3541;53.230;10.518;2022-12-11T06:23:38;11.40;;;7.37;;
7001;SDS011;3541;53.230;10.518;2022-12-11T06:26:05;12.57;;;7.87;;
7001;SDS011;3541;53.230;10.518;2022-12-11T06:28:32;12.23;;;7.77;;
7001;SDS011;3541;53.230;10.518;2022-12-11T06:30:58;12.57;;;7.40;;
7001;SDS011;3541;53.230;10.518;2022-12-11T06:33:25;13.07;;;7.73;;
7001;SDS011;3541;53.230;10.518;2022-12-11T06:35:53;11.50;;;7.37;;
7001;SDS011;3541;53.230;10.518;2022-12-11T06:38:20;11.90;;;7.87;;
7001;SDS011;3541;53.230;10.518;2022-12-11T06:40:52;13.37;;;6.80;;
7001;SDS011;3541;53.230;10.518;2022-12-11T06:43:19;13.13;;;7.73;;
7001;SDS011;3541;53.230;10.518;2022-12-11T06:45:46;11.47;;;7.50;;
7001;SDS011;3541;53.230;10.518;2022-12-11T06:48:13;10.63;;;6.80;;
7001;SDS011;3541;53.230;10.518;2022-12-11T06:50:39;11.33;;;7.40;;
7001;SDS011;3541;53.230;10.518;2022-12-11T06:53:08;12.90;;;7.77;;
7001;SDS011;3541;53.230;10.518;2022-12-11T06:55:36;12.43;;;7.07;;
7001;SDS011;3541;53.230;10.518;2022-12-11T06:58:03;10.03;;;6.80;;
7001;SDS011;3541;53.230;10.518;2022-12-11T07:00:30;12.00;;;7.63;;
7001;SDS011;3541;53.230;10.518;2022-12-11T07:02:56;12.93;;;7.03;;
7001;SDS011;3541;53.230;10.518;2022-12-11T07:05:23;12.73;;;7.33;;
7001;SDS011;3541;53.230;10.518;2022-12-11T07:07:51;11.13;;;7.07;;
7001;SDS011;3541;53.230;10.518;2022-12-11T07:10:20;12.33;;;6.97;;
7001;SDS011;3541;53.230;10.518;2022-12-11T07:12:46;10.83;;;7.13;;
7001;SDS011;3541;53.230;10.518;2022-12-11T07:15:13;11.60;;;7.67;;
7001;SDS011;3541;53.230;10.518;2022-12-11T07:17:40;12.73;;;6.83;;
7001;SDS011;3541;53.230;10.518;2022-12-11T07:20:07;14.60;;;7.13;;
7001;SDS011;3541;53.230;10.518;2022-12-11T07:22:34;12.23;;;7.80;;
7001;SDS011;3541;53.230;10.518;2022-12-11T07:25:01;11.87;;;7.07;;
7001;SDS011;3541;53.230;10.518;2022-12-11T07:27:29;13.00;;;7.40;;
7001;SDS011;3541;53.230;10.518;2022-12-11T07:29:56;13.30;;;7.60;;
7001;SDS011;3541;53.230;10.518;2022-12-11T07:32:23;12.73;;;7.43;;
7001;SDS011;3541;53.230;10.518;2022-12-11T07:34:50;12.80;;;7.37;;
7001;SDS011;3541;53.230;10.518;2022-12-11T07:37:16;15.27;;;8.60;;
7001;SDS011;3541;53.230;10.518;2022-12-11T07:39:43;22.63;;;10.50;;
7001;SDS011;3541;53.230;10.518;2022-12-11T07:42:10;19.23;;;10.40;;
7001;SDS011;3541;53.230;10.518;2022-12-11T07:44:37;18.53;;;11.03;;
7001;SDS011;3541;53.230;10.518;2022-12-11T07:47:04;23.70;;;13.10;;
7001;SDS011;3541;53.230;10.518;2022-12-11T07:49:31;22.83;;;12.40;;
7001;SDS011;3541;53.230;10.518;2022-12-11T07:51:57;20.87;;;12.27;;
7001;SDS011;3541;53.230;10.518;2022-12-11T07:54:24;17.80;;;10.63;;
7001;SDS011;3541;53.230;10.518;2022-12-11T07:56:50;19.53;;;11.37;;
7001;SDS011;3541;53.230;10.518;2022-12-11T07:59:17;21.53;;;12.53;;
7001;SDS011;3541;53.230;10.518;2022-12-11T08:01:46;18.90;;;11.53;;
7001;SDS011;3541;53.230;10.518;2022-12-11T08:04:12;36.53;;;20.10;;
7001;SDS011;3541;53.230;10.518;2022-12-11T08:06:40;35.37;;;19.13;;
7001;SDS011;3541;53.230;10.518;2022-12-11T08:09:07;23.37;;;14.10;;
7001;SDS011;3541;53.230;10.518;2022-12-11T08:11:35;20.60;;;12.53;;
7001;SDS011;3541;53.230;10.518;2022-12-11T08:14:02;15.33;;;9.87;;
7001;SDS011;3541;53.230;10.518;2022-12-11T08:16:30;16.93;;;10.67;;
7001;SDS011;3541;53.230;10.518;2022-12-11T08:18:58;16.97;;;10.90;;
7001;SDS011;3541;53.230;10.518;2022-12-11T08:21:26;16.93;;;10.00;;
7001;SDS011;3541;53.230;10.518;2022-12-11T08:23:53;15.13;;;10.07;;
7001;SDS011;3541;53.230;10.518;2022-12-11T08:26:21;16.30;;;9.77;;
7001;SDS011;3541;53.230;10.518;2022-12-11T08:28:50;13.70;;;8.80;;
7001;SDS011;3541;53.230;10.518;2022-12-11T08:31:16;16.10;;;9.70;;
7001;SDS011;3541;53.230;10.518;2022-12-11T08:33:44;14.03;;;8.67;;
7001;SDS011;3541;53.230;10.518;2022-12-11T08:36:13;14.97;;;8.87;;
7001;SDS011;3541;53.230;10.518;2022-12-11T08:38:41;14.40;;;8.87;;
7001;SDS011;3541;53.230;10.518;2022-12-11T08:41:08;13.00;;;8.23;;
7001;SDS011;3541;53.230;10.518;2022-12-11T08:43:35;15.77;;;8.80;;
7001;SDS011;3541;53.230;10.518;2022-12-11T08:46:02;15.83;;;9.30;;
7001;SDS011;3541;53.230;10.518;2022-12-11T08:48:29;14.60;;;8.80;;
7001;SDS011;3541;53.230;10.518;2022-12-11T08:50:57;18.73;;;10.17;;
7001;SDS011;3541;53.230;10.518;2022-12-11T08:53:26;19.27;;;9.60;;
7001;SDS011;3541;53.230;10.518;2022-12-11T08:55:53;17.23;;;10.37;;
7001;SDS011;3541;53.230;10.518;2022-12-11T08:58:20;15.80;;;9.80;;
7001;SDS011;3541;53.230;10.518;2022-12-11T09:00:46;17.80;;;10.37;;
7001;SDS011;3541;53.230;10.518;2022-12-11T09:03:13;19.43;;;12.17;;
7001;SDS011;3541;53.230;10.518;2022-12-11T09:05:39;19.20;;;10.80;;
7001;SDS011;3541;53.230;10.518;2022-12-11T09:08:06;17.47;;;10.60;;
7001;SDS011;3541;53.230;10.518;2022-12-11T09:10:34;19.43;;;10.30;;
7001;SDS011;3541;53.230;10.518;2022-12-11T09:13:00;16.07;;;9.47;;
7001;SDS011;3541;53.230;10.518;2022-12-11T09:15:27;14.57;;;9.10;;
7001;SDS011;3541;53.230;10.518;2022-12-11T09:17:53;15.47;;;9.80;;
7001;SDS011;3541;53.230;10.518;2022-12-11T09:20:20;21.97;;;13.20;;
7001;SDS011;3541;53.230;10.518;2022-12-11T09:22:47;18.10;;;11.03;;
7001;SDS011;3541;53.230;10.518;2022-12-11T09:25:13;14.83;;;9.17;;
7001;SDS011;3541;53.230;10.518;2022-12-11T09:27:41;14.00;;;8.90;;
7001;SDS011;3541;53.230;10.518;2022-12-11T09:30:08;12.47;;;8.10;;
7001;SDS011;3541;53.230;10.518;2022-12-11T09:32:35;10.43;;;6.93;;
7001;SDS011;3541;53.230;10.518;2022-12-11T09:35:02;11.00;;;7.37;;
7001;SDS011;3541;53.230;10.518;2022-12-11T09:37:28;11.83;;;7.93;;
7001;SDS011;3541;53.230;10.518;2022-12-11T09:39:55;12.80;;;8.03;;
7001;SDS011;3541;53.230;10.518;2022-12-11T09:42:23;12.43;;;8.23;;
7001;SDS011;3541;53.230;10.518;2022-12-11T09:44:58;14.50;;;9.20;;
7001;SDS011;3541;53.230;10.518;2022-12-11T09:47:29;15.93;;;9.67;;
7001;SDS011;3541;53.230;10.518;2022-12-11T09:50:02;17.23;;;9.60;;
7001;SDS011;3541;53.230;10.518;2022-12-11T09:52:33;14.20;;;8.80;;
7001;SDS011;3541;53.230;10.518;2022-12-11T09:55:05;15.70;;;9.73;;
7001;SDS011;3541;53.230;10.518;2022-12-11T09:57:41;16.00;;;9.50;;
7001;SDS011;3541;53.230;10.518;2022-12-11T10:00:19;16.80;;;9.80;;
7001;SDS011;3541;53.230;10.518;2022-12-11T10:05:58;15.57;;;9.70;;
7001;SDS011;3541;53.230;10.518;2022-12-11T10:08:29;15.77;;;9.80;;
7001;SDS011;3541;53.230;10.518;2022-12-11T10:11:04;14.23;;;8.43;;
7001;SDS011;3541;53.230;10.518;2022-12-11T10:13:46;12.77;;;8.20;;
7001;SDS011;3541;53.230;10.518;2022-12-11T10:16:23;12.30;;;7.60;;
7001;SDS011;3541;53.230;10.518;2022-12-11T10:18:58;11.97;;;7.53;;
7001;SDS011;3541;53.230;10.518;2022-12-11T10:21:25;13.93;;;7.20;;
7001;SDS011;3541;53.230;10.518;2022-12-11T10:23:55;12.80;;;7.90;;
7001;SDS011;3541;53.230;10.518;2022-12-11T10:26:26;12.03;;;7.90;;
7001;SDS011;3541;53.230;10.518;2022-12-11T10:28:54;14.37;;;8.33;;
7001;SDS011;3541;53.230;10.518;2022-12-11T10:31:28;13.70;;;8.27;;
7001;SDS011;3541;53.230;10.518;2022-12-11T10:34:03;14.93;;;8.30;;
7001;SDS011;3541;53.230;10.518;2022-12-11T10:36:37;12.17;;;8.17;;
7001;SDS011;3541;53.230;10.518;2022-12-11T10:39:09;13.77;;;8.10;;
7001;SDS011;3541;53.230;10.518;2022-12-11T10:41:39;14.73;;;8.93;;
7001;SDS011;3541;53.230;10.518;2022-12-11T10:44:14;12.43;;;7.93;;
7001;SDS011;3541;53.230;10.518;2022-12-11T10:46:43;13.93;;;7.80;;
7001;SDS011;3541;53.230;10.518;2022-12-11T10:49:20;17.93;;;9.00;;
7001;SDS011;3541;53.230;10.518;2022-12-11T10:51:48;16.53;;;9.53;;
7001;SDS011;3541;53.230;10.518;2022-12-11T10:54:28;15.23;;;8.80;;
7001;SDS011;3541;53.230;10.518;2022-12-11T10:56:56;14.47;;;8.90;;
7001;SDS011;3541;53.230;10.518;2022-12-11T10:59:28;13.63;;;8.93;;
7001;SDS011;3541;53.230;10.518;2022-12-11T11:02:00;13.83;;;8.43;;
7001;SDS011;3541;53.230;10.518;2022-12-11T11:04:28;14.73;;;8.63;;
7001;SDS011;3541;53.230;10.518;2022-12-11T11:07:00;15.33;;;9.80;;
7001;SDS011;3541;53.230;10.518;2022-12-11T11:09:29;13.20;;;8.73;;
7001;SDS011;3541;53.230;10.518;2022-12-11T11:11:56;13.07;;;8.33;;
7001;SDS011;3541;53.230;10.518;2022-12-11T11:14:23;14.63;;;8.87;;
7001;SDS011;3541;53.230;10.518;2022-12-11T11:16:50;16.03;;;9.10;;
7001;SDS011;3541;53.230;10.518;2022-12-11T11:19:21;18.00;;;8.90;;
7001;SDS011;3541;53.230;10.518;2022-12-11T11:21:52;15.50;;;9.63;;
7001;SDS011;3541;53.230;10.518;2022-12-11T11:24:29;13.90;;;8.93;;
7001;SDS011;3541;53.230;10.518;2022-12-11T11:26:59;15.27;;;8.80;;
7001;SDS011;3541;53.230;10.518;2022-12-11T11:29:28;16.83;;;9.17;;
7001;SDS011;3541;53.230;10.518;2022-12-11T11:31:56;15.80;;;8.90;;
7001;SDS011;3541;53.230;10.518;2022-12-11T11:34:40;15.30;;;9.47;;
7001;SDS011;3541;53.230;10.518;2022-12-11T11:37:14;14.77;;;9.13;;
7001;SDS011;3541;53.230;10.518;2022-12-11T11:39:49;15.43;;;9.17;;
7001;SDS011;3541;53.230;10.518;2022-12-11T11:42:21;14.73;;;8.97;;
7001;SDS011;3541;53.230;10.518;2022-12-11T11:44:57;15.40;;;9.07;;
7001;SDS011;3541;53.230;10.518;2022-12-11T11:47:29;13.37;;;8.20;;
7001;SDS011;3541;53.230;10.518;2022-12-11T11:50:03;24.87;;;13.57;;
7001;SDS011;3541;53.230;10.518;2022-12-11T11:52:35;17.33;;;10.87;;
7001;SDS011;3541;53.230;10.518;2022-12-11T11:55:12;25.03;;;12.57;;
7001;SDS011;3541;53.230;10.518;2022-12-11T11:57:42;24.57;;;11.50;;
7001;SDS011;3541;53.230;10.518;2022-12-11T12:00:15;22.53;;;11.43;;
7001;SDS011;3541;53.230;10.518;2022-12-11T12:02:45;17.80;;;9.07;;
7001;SDS011;3541;53.230;10.518;2022-12-11T12:05:14;14.40;;;8.70;;
7001;SDS011;3541;53.230;10.518;2022-12-11T12:07:43;14.27;;;9.20;;
7001;SDS011;3541;53.230;10.518;2022-12-11T12:10:15;14.20;;;9.20;;
7001;SDS011;3541;53.230;10.518;2022-12-11T12:12:48;16.53;;;10.23;;
7001;SDS011;3541;53.230;10.518;2022-12-11T12:15:21;15.10;;;9.30;;
7001;SDS011;3541;53.230;10.518;2022-12-11T12:18:01;14.77;;;9.27;;
7001;SDS011;3541;53.230;10.518;2022-12-11T12:20:37;14.33;;;9.23;;
7001;SDS011;3541;53.230;10.518;2022-12-11T12:23:21;13.30;;;8.43;;
7001;SDS011;3541;53.230;10.518;2022-12-11T12:26:00;17.90;;;10.30;;
7001;SDS011;3541;53.230;10.518;2022-12-11T12:28:35;15.37;;;9.20;;
7001;SDS011;3541;53.230;10.518;2022-12-11T12:31:10;15.77;;;9.50;;
7001;SDS011;3541;53.230;10.518;2022-12-11T12:33:48;18.43;;;10.20;;
7001;SDS011;3541;53.230;10.518;2022-12-11T12:36:26;14.00;;;8.47;;
7001;SDS011;3541;53.230;10.518;2022-12-11T12:39:02;18.53;;;9.60;;
7001;SDS011;3541;53.230;10.518;2022-12-11T12:41:37;15.57;;;9.23;;
7001;SDS011;3541;53.230;10.518;2022-12-11T12:44:13;15.20;;;9.03;;
7001;SDS011;3541;53.230;10.518;2022-12-11T12:46:49;15.40;;;8.93;;
7001;SDS011;3541;53.230;10.518;2022-12-11T12:49:26;16.60;;;9.40;;
7001;SDS011;3541;53.230;10.518;2022-12-11T12:51:59;13.90;;;8.63;;
7001;SDS011;3541;53.230;10.518;2022-12-11T12:54:26;16.87;;;9.70;;
7001;SDS011;3541;53.230;10.518;2022-12-11T12:56:56;15.30;;;9.07;;
7001;SDS011;3541;53.230;10.518;2022-12-11T12:59:26;17.53;;;8.90;;
7001;SDS011;3541;53.230;10.518;2022-12-11T13:01:54;16.47;;;9.33;;
7001;SDS011;3541;53.230;10.518;2022-12-11T13:04:27;15.77;;;9.53;;
7001;SDS011;3541;53.230;10.518;2022-12-11T13:07:08;17.03;;;9.67;;
7001;SDS011;3541;53.230;10.518;2022-12-11T13:09:38;15.47;;;9.07;;
7001;SDS011;3541;53.230;10.518;2022-12-11T13:12:10;17.23;;;10.20;;
7001;SDS011;3541;53.230;10.518;2022-12-11T13:14:38;15.73;;;9.87;;
7001;SDS011;3541;53.230;10.518;2022-12-11T13:17:07;14.93;;;9.13;;
7001;SDS011;3541;53.230;10.518;2022-12-11T13:20:05;17.90;;;10.87;;
7001;SDS011;3541;53.230;10.518;2022-12-11T13:22:51;15.03;;;9.13;;
7001;SDS011;3541;53.230;10.518;2022-12-11T13:25:22;16.40;;;9.37;;
7001;SDS011;3541;53.230;10.518;2022-12-11T13:27:52;17.00;;;10.03;;
7001;SDS011;3541;53.230;10.518;2022-12-11T13:30:29;14.77;;;9.53;;
7001;SDS011;3541;53.230;10.518;2022-12-11T13:32:58;13.60;;;8.83;;
7001;SDS011;3541;53.230;10.518;2022-12-11T13:35:28;17.10;;;9.17;;
7001;SDS011;3541;53.230;10.518;2022-12-11T13:37:57;16.03;;;9.03;;
7001;SDS011;3541;53.230;10.518;2022-12-11T13:40:31;16.63;;;9.47;;
7001;SDS011;3541;53.230;10.518;2022-12-11T13:43:03;16.77;;;8.77;;
7001;SDS011;3541;53.230;10.518;2022-12-11T13:45:42;15.03;;;8.90;;
7001;SDS011;3541;53.230;10.518;2022-12-11T13:48:15;14.87;;;8.50;;
7001;SDS011;3541;53.230;10.518;2022-12-11T13:50:44;15.10;;;9.17;;
7001;SDS011;3541;53.230;10.518;2022-12-11T13:53:13;17.60;;;9.50;;
7001;SDS011;3541;53.230;10.518;2022-12-11T13:55:42;18.27;;;10.13;;
7001;SDS011;3541;53.230;10.518;2022-12-11T13:58:16;19.20;;;10.00;;
7001;SDS011;3541;53.230;10.518;2022-12-11T14:00:52;16.30;;;9.53;;
7001;SDS011;3541;53.230;10.518;2022-12-11T14:03:24;28.97;;;13.50;;
7001;SDS011;3541;53.230;10.518;2022-12-11T14:05:51;24.63;;;13.60;;
7001;SDS011;3541;53.230;10.518;2022-12-11T14:08:21;20.70;;;11.77;;
7001;SDS011;3541;53.230;10.518;2022-12-11T14:10:52;17.67;;;9.53;;
7001;SDS011;3541;53.230;10.518;2022-12-11T14:13:20;15.77;;;9.83;;
7001;SDS011;3541;53.230;10.518;2022-12-11T14:15:49;16.20;;;9.73;;
7001;SDS011;3541;53.230;10.518;2022-12-11T14:18:19;16.73;;;9.43;;
7001;SDS011;3541;53.230;10.518;2022-12-11T14:20:52;15.63;;;9.90;;
7001;SDS011;3541;53.230;10.518;2022-12-11T14:23:22;16.07;;;10.60;;
7001;SDS011;3541;53.230;10.518;2022-12-11T14:25:53;21.07;;;14.70;;
7001;SDS011;3541;53.230;10.518;2022-12-11T14:28:21;18.87;;;12.60;;
7001;SDS011;3541;53.230;10.518;2022-12-11T14:30:51;19.83;;;12.47;;
7001;SDS011;3541;53.230;10.518;2022-12-11T14:33:23;21.10;;;11.83;;
7001;SDS011;3541;53.230;10.518;2022-12-11T14:35:54;19.10;;;11.17;;
7001;SDS011;3541;53.230;10.518;2022-12-11T14:38:24;22.77;;;12.80;;
7001;SDS011;3541;53.230;10.518;2022-12-11T14:40:54;20.37;;;11.00;;
7001;SDS011;3541;53.230;10.518;2022-12-11T14:43:25;21.13;;;12.37;;
7001;SDS011;3541;53.230;10.518;2022-12-11T14:45:54;19.30;;;11.03;;
7001;SDS011;3541;53.230;10.518;2022-12-11T14:48:26;16.50;;;10.37;;
7001;SDS011;3541;53.230;10.518;2022-12-11T14:50:57;17.43;;;10.93;;
7001;SDS011;3541;53.230;10.518;2022-12-11T14:53:31;19.80;;;12.43;;
7001;SDS011;3541;53.230;10.518;2022-12-11T14:56:02;19.03;;;11.07;;
7001;SDS011;3541;53.230;10.518;2022-12-11T14:58:32;17.13;;;10.53;;
7001;SDS011;3541;53.230;10.518;2022-12-11T15:01:06;18.73;;;11.20;;
7001;SDS011;3541;53.230;10.518;2022-12-11T15:03:45;15.33;;;9.90;;